SBI6404 UHWW-UIII
Flight info
| Callsign | SBI6404 |
|---|---|
| Flight time | 3h 48m |
| Altitude | 33000 |
| Route | DOLMA B356 TD B355 HAB/K0859F340 L168 IVADA A946 TORMA N992 SOVIK N992 GU G229 NIKTO P873 KUDAR A807 USONA |
| Aircraft | B738/M-SDRWY/L |
Departure
| Time | 2026-05-04 22:54 |
|---|---|
| Airport | Vladivostok International Airport (UHWW) |
Arrival
| Time | 2026-05-05 02:42 |
|---|---|
| Airport | Irkutsk International Airport (UIII) |
| Time | Latitude | Longitude | Altitude | Speed | Heading |
|---|---|---|---|---|---|
| 2026-05-04 22:19 | 43.39752 | 132.16565 | 54 ft | 0 kts | 150° |
| 2026-05-04 22:42 | 43.39755 | 132.16562 | 54 ft | 2 kts | 150° |
| 2026-05-04 22:42 | 43.39768 | 132.16551 | 54 ft | 2 kts | 149° |
| 2026-05-04 22:43 | 43.39781 | 132.16540 | 54 ft | 2 kts | 149° |
| 2026-05-04 22:43 | 43.39793 | 132.16530 | 54 ft | 2 kts | 149° |
| 2026-05-04 22:43 | 43.39806 | 132.16521 | 54 ft | 1 kts | 149° |
| 2026-05-04 22:43 | 43.39819 | 132.16511 | 54 ft | 2 kts | 169° |
| 2026-05-04 22:44 | 43.39834 | 132.16510 | 54 ft | 2 kts | 187° |
| 2026-05-04 22:44 | 43.39849 | 132.16516 | 54 ft | 2 kts | 207° |
| 2026-05-04 22:44 | 43.39861 | 132.16528 | 54 ft | 2 kts | 226° |
| 2026-05-04 22:44 | 43.39869 | 132.16544 | 54 ft | 2 kts | 244° |
| 2026-05-04 22:45 | 43.39873 | 132.16556 | 54 ft | 0 kts | 242° |
| 2026-05-04 22:45 | 43.39874 | 132.16556 | 54 ft | 0 kts | 241° |
| 2026-05-04 22:46 | 43.39864 | 132.16531 | 54 ft | 7 kts | 241° |
| 2026-05-04 22:47 | 43.39827 | 132.16441 | 54 ft | 14 kts | 240° |
| 2026-05-04 22:47 | 43.39771 | 132.16309 | 54 ft | 14 kts | 240° |
| 2026-05-04 22:47 | 43.39756 | 132.16222 | 54 ft | 8 kts | 306° |
| 2026-05-04 22:47 | 43.39800 | 132.16179 | 54 ft | 7 kts | 327° |
| 2026-05-04 22:48 | 43.39845 | 132.16142 | 54 ft | 7 kts | 330° |
| 2026-05-04 22:48 | 43.39891 | 132.16093 | 54 ft | 8 kts | 298° |
| 2026-05-04 22:48 | 43.39875 | 132.16010 | 54 ft | 10 kts | 242° |
| 2026-05-04 22:48 | 43.39836 | 132.15915 | 54 ft | 12 kts | 240° |
| 2026-05-04 22:49 | 43.39792 | 132.15804 | 54 ft | 14 kts | 240° |
| 2026-05-04 22:49 | 43.39743 | 132.15681 | 54 ft | 15 kts | 241° |
| 2026-05-04 22:49 | 43.39688 | 132.15546 | 54 ft | 17 kts | 240° |
| 2026-05-04 22:49 | 43.39628 | 132.15395 | 54 ft | 18 kts | 241° |
| 2026-05-04 22:50 | 43.39562 | 132.15233 | 54 ft | 20 kts | 240° |
| 2026-05-04 22:50 | 43.39492 | 132.15059 | 54 ft | 21 kts | 241° |
| 2026-05-04 22:50 | 43.39417 | 132.14874 | 54 ft | 22 kts | 240° |
| 2026-05-04 22:50 | 43.39338 | 132.14677 | 54 ft | 24 kts | 240° |
| 2026-05-04 22:51 | 43.39255 | 132.14471 | 54 ft | 25 kts | 240° |
| 2026-05-04 22:51 | 43.39170 | 132.14259 | 54 ft | 26 kts | 240° |
| 2026-05-04 22:51 | 43.39079 | 132.14035 | 54 ft | 26 kts | 241° |
| 2026-05-04 22:51 | 43.38987 | 132.13806 | 54 ft | 27 kts | 241° |
| 2026-05-04 22:52 | 43.38894 | 132.13576 | 54 ft | 27 kts | 240° |
| 2026-05-04 22:52 | 43.38806 | 132.13358 | 54 ft | 20 kts | 240° |
| 2026-05-04 22:52 | 43.38768 | 132.13229 | 54 ft | 12 kts | 276° |
| 2026-05-04 22:52 | 43.38823 | 132.13148 | 54 ft | 11 kts | 331° |
| 2026-05-04 22:53 | 43.38891 | 132.13100 | 54 ft | 10 kts | 341° |
| 2026-05-04 22:53 | 43.38953 | 132.13130 | 54 ft | 9 kts | 48° |
| 2026-05-04 22:53 | 43.38989 | 132.13213 | 54 ft | 12 kts | 60° |
| 2026-05-04 22:53 | 43.39112 | 132.13519 | 54 ft | 72 kts | 60° |
| 2026-05-04 22:54 | 43.39470 | 132.14403 | 54 ft | 137 kts | 61° |
| 2026-05-04 22:54 | 43.40019 | 132.15776 | 67 ft | 186 kts | 61° |
| 2026-05-04 22:54 | 43.40639 | 132.17323 | 737 ft | 186 kts | 61° |
| 2026-05-04 22:54 | 43.41244 | 132.18846 | 1477 ft | 187 kts | 61° |
| 2026-05-04 22:55 | 43.41898 | 132.20483 | 1781 ft | 204 kts | 60° |
| 2026-05-04 22:55 | 43.42620 | 132.22287 | 1990 ft | 224 kts | 60° |
| 2026-05-04 22:55 | 43.43395 | 132.24220 | 2498 ft | 236 kts | 60° |
| 2026-05-04 22:55 | 43.44190 | 132.26205 | 3150 ft | 244 kts | 60° |
| 2026-05-04 22:56 | 43.45021 | 132.28276 | 3832 ft | 251 kts | 59° |
| 2026-05-04 22:56 | 43.45864 | 132.30373 | 4563 ft | 255 kts | 59° |
| 2026-05-04 22:56 | 43.46733 | 132.32533 | 5288 ft | 260 kts | 59° |
| 2026-05-04 22:56 | 43.47608 | 132.34706 | 6006 ft | 264 kts | 58° |
| 2026-05-04 22:57 | 43.48510 | 132.36916 | 6707 ft | 267 kts | 54° |
| 2026-05-04 22:57 | 43.49773 | 132.38734 | 7318 ft | 268 kts | 29° |
| 2026-05-04 22:57 | 43.51374 | 132.39905 | 8140 ft | 265 kts | 25° |
| 2026-05-04 22:57 | 43.53015 | 132.41157 | 8687 ft | 273 kts | 27° |
| 2026-05-04 22:58 | 43.54649 | 132.42453 | 9365 ft | 276 kts | 26° |
| 2026-05-04 22:58 | 43.56331 | 132.43780 | 9965 ft | 281 kts | 26° |
| 2026-05-04 22:58 | 43.58025 | 132.45125 | 10592 ft | 285 kts | 26° |
| 2026-05-04 22:58 | 43.59745 | 132.46493 | 11182 ft | 290 kts | 26° |
| 2026-05-04 22:59 | 43.61514 | 132.47902 | 11770 ft | 294 kts | 26° |
| 2026-05-04 22:59 | 43.63285 | 132.49313 | 12352 ft | 298 kts | 26° |
| 2026-05-04 22:59 | 43.65074 | 132.50742 | 12964 ft | 301 kts | 25° |
| 2026-05-04 22:59 | 43.66892 | 132.52193 | 13547 ft | 304 kts | 25° |
| 2026-05-04 23:00 | 43.68724 | 132.53657 | 14123 ft | 307 kts | 25° |
| 2026-05-04 23:00 | 43.70558 | 132.55124 | 14681 ft | 310 kts | 25° |
| 2026-05-04 23:00 | 43.72439 | 132.56628 | 15234 ft | 313 kts | 25° |
| 2026-05-04 23:00 | 43.74321 | 132.58136 | 15766 ft | 316 kts | 25° |
| 2026-05-04 23:01 | 43.76232 | 132.59668 | 16298 ft | 319 kts | 24° |
| 2026-05-04 23:01 | 43.78149 | 132.61204 | 16804 ft | 322 kts | 24° |
| 2026-05-04 23:01 | 43.80052 | 132.62828 | 17300 ft | 327 kts | 29° |
| 2026-05-04 23:01 | 43.81866 | 132.64803 | 17791 ft | 333 kts | 35° |
| 2026-05-04 23:02 | 43.83589 | 132.66907 | 18247 ft | 337 kts | 36° |
| 2026-05-04 23:02 | 43.85365 | 132.69057 | 18699 ft | 340 kts | 36° |
| 2026-05-04 23:02 | 43.87138 | 132.71204 | 19172 ft | 342 kts | 36° |
| 2026-05-04 23:02 | 43.88924 | 132.73392 | 19621 ft | 345 kts | 36° |
| 2026-05-04 23:03 | 43.90725 | 132.75609 | 20065 ft | 347 kts | 36° |
| 2026-05-04 23:03 | 43.92538 | 132.77843 | 20482 ft | 350 kts | 36° |
| 2026-05-04 23:03 | 43.94359 | 132.80089 | 20904 ft | 353 kts | 36° |
| 2026-05-04 23:03 | 43.96176 | 132.82333 | 21302 ft | 356 kts | 36° |
| 2026-05-04 23:04 | 43.98025 | 132.84619 | 21693 ft | 358 kts | 36° |
| 2026-05-04 23:04 | 43.99882 | 132.86920 | 22092 ft | 361 kts | 36° |
| 2026-05-04 23:04 | 44.01751 | 132.89237 | 22470 ft | 363 kts | 36° |
| 2026-05-04 23:04 | 44.03650 | 132.91591 | 22832 ft | 366 kts | 36° |
| 2026-05-04 23:05 | 44.05545 | 132.93944 | 23175 ft | 369 kts | 36° |
| 2026-05-04 23:05 | 44.07456 | 132.96321 | 23540 ft | 371 kts | 35° |
| 2026-05-04 23:05 | 44.09404 | 132.98743 | 23867 ft | 374 kts | 35° |
| 2026-05-04 23:05 | 44.11340 | 133.01155 | 24195 ft | 377 kts | 36° |
| 2026-05-04 23:06 | 44.13273 | 133.03564 | 24519 ft | 379 kts | 36° |
| 2026-05-04 23:06 | 44.15244 | 133.06023 | 24823 ft | 382 kts | 36° |
| 2026-05-04 23:06 | 44.17238 | 133.08513 | 25146 ft | 385 kts | 36° |
| 2026-05-04 23:06 | 44.19231 | 133.11005 | 25443 ft | 387 kts | 36° |
| 2026-05-04 23:07 | 44.21283 | 133.13423 | 25717 ft | 387 kts | 31° |
| 2026-05-04 23:07 | 44.23437 | 133.15614 | 26039 ft | 387 kts | 29° |
| 2026-05-04 23:07 | 44.25648 | 133.17824 | 26323 ft | 390 kts | 30° |
| 2026-05-04 23:07 | 44.27813 | 133.20044 | 26608 ft | 392 kts | 30° |
| 2026-05-04 23:08 | 44.30012 | 133.22313 | 26885 ft | 395 kts | 30° |
| 2026-05-04 23:08 | 44.32230 | 133.24597 | 27174 ft | 396 kts | 30° |
| 2026-05-04 23:08 | 44.34452 | 133.26886 | 27422 ft | 399 kts | 30° |
| 2026-05-04 23:08 | 44.36662 | 133.29169 | 27671 ft | 401 kts | 30° |
| 2026-05-04 23:09 | 44.38926 | 133.31511 | 27932 ft | 403 kts | 30° |
| 2026-05-04 23:09 | 44.41179 | 133.33843 | 28195 ft | 405 kts | 30° |
| 2026-05-04 23:09 | 44.43431 | 133.36177 | 28436 ft | 407 kts | 30° |
| 2026-05-04 23:09 | 44.45713 | 133.38545 | 28681 ft | 409 kts | 30° |
| 2026-05-04 23:10 | 44.47976 | 133.40895 | 28909 ft | 411 kts | 30° |
| 2026-05-04 23:10 | 44.50269 | 133.43278 | 29155 ft | 412 kts | 30° |
| 2026-05-04 23:10 | 44.52571 | 133.45677 | 29392 ft | 414 kts | 30° |
| 2026-05-04 23:10 | 44.54864 | 133.48064 | 29589 ft | 416 kts | 30° |
| 2026-05-04 23:11 | 44.57182 | 133.50482 | 29824 ft | 417 kts | 30° |
| 2026-05-04 23:11 | 44.59507 | 133.52910 | 30019 ft | 419 kts | 30° |
| 2026-05-04 23:11 | 44.61850 | 133.55359 | 30254 ft | 420 kts | 30° |
| 2026-05-04 23:11 | 44.64211 | 133.57829 | 30414 ft | 423 kts | 30° |
| 2026-05-04 23:12 | 44.66560 | 133.60289 | 30650 ft | 424 kts | 30° |
| 2026-05-04 23:12 | 44.68914 | 133.62758 | 30851 ft | 426 kts | 30° |
| 2026-05-04 23:12 | 44.71280 | 133.65240 | 31000 ft | 428 kts | 30° |
| 2026-05-04 23:12 | 44.73667 | 133.67747 | 31176 ft | 430 kts | 30° |
| 2026-05-04 23:13 | 44.76035 | 133.70239 | 31363 ft | 431 kts | 30° |
| 2026-05-04 23:13 | 44.78460 | 133.72792 | 31521 ft | 433 kts | 30° |
| 2026-05-04 23:13 | 44.80853 | 133.75314 | 31723 ft | 433 kts | 30° |
| 2026-05-04 23:13 | 44.83269 | 133.77864 | 31884 ft | 435 kts | 30° |
| 2026-05-04 23:14 | 44.85688 | 133.80417 | 32022 ft | 437 kts | 30° |
| 2026-05-04 23:14 | 44.88094 | 133.82956 | 32190 ft | 437 kts | 30° |
| 2026-05-04 23:14 | 44.90551 | 133.85542 | 32378 ft | 438 kts | 30° |
| 2026-05-04 23:14 | 44.92969 | 133.88077 | 32526 ft | 439 kts | 29° |
| 2026-05-04 23:15 | 44.95448 | 133.90567 | 32652 ft | 440 kts | 28° |
| 2026-05-04 23:15 | 44.97971 | 133.93039 | 32801 ft | 441 kts | 28° |
| 2026-05-04 23:15 | 45.00475 | 133.95512 | 33026 ft | 440 kts | 28° |
| 2026-05-04 23:15 | 45.02959 | 133.98006 | 33153 ft | 442 kts | 29° |
| 2026-05-04 23:16 | 45.07996 | 134.03061 | 33195 ft | 451 kts | 29° |
| 2026-05-04 23:16 | 45.13187 | 134.08194 | 33202 ft | 460 kts | 30° |
| 2026-05-04 23:17 | 45.18427 | 134.13477 | 33197 ft | 469 kts | 31° |
| 2026-05-04 23:17 | 45.23802 | 134.18924 | 33189 ft | 478 kts | 30° |
| 2026-05-04 23:18 | 45.26565 | 134.21689 | 32809 ft | 486 kts | 30° |
| 2026-05-04 23:18 | 45.29289 | 134.24414 | 32810 ft | 481 kts | 30° |
| 2026-05-04 23:18 | 45.34757 | 134.29901 | 32803 ft | 481 kts | 30° |
| 2026-05-04 23:19 | 45.40213 | 134.35437 | 32803 ft | 483 kts | 30° |
| 2026-05-04 23:19 | 45.45674 | 134.41036 | 32794 ft | 483 kts | 30° |
| 2026-05-04 23:20 | 45.51146 | 134.46623 | 32692 ft | 483 kts | 30° |
| 2026-05-04 23:20 | 45.56598 | 134.52184 | 32618 ft | 482 kts | 30° |
| 2026-05-04 23:21 | 45.62061 | 134.57730 | 32587 ft | 483 kts | 30° |
| 2026-05-04 23:21 | 45.67517 | 134.63304 | 32586 ft | 484 kts | 30° |
| 2026-05-04 23:22 | 45.72993 | 134.68919 | 32587 ft | 484 kts | 31° |
| 2026-05-04 23:22 | 45.78459 | 134.74547 | 32588 ft | 484 kts | 31° |
| 2026-05-04 23:23 | 45.83913 | 134.80174 | 32586 ft | 484 kts | 31° |
| 2026-05-04 23:23 | 45.89568 | 134.85236 | 32586 ft | 476 kts | 19° |
| 2026-05-04 23:24 | 45.92681 | 134.86711 | 32590 ft | 464 kts | 5° |
| 2026-05-04 23:24 | 45.95840 | 134.87256 | 32594 ft | 460 kts | 358° |
| 2026-05-04 23:24 | 46.02218 | 134.87990 | 32587 ft | 460 kts | 359° |
| 2026-05-04 23:25 | 46.08604 | 134.88910 | 32588 ft | 461 kts | 0° |
| 2026-05-04 23:25 | 46.14977 | 134.89885 | 32588 ft | 461 kts | 0° |
| 2026-05-04 23:26 | 46.21326 | 134.90816 | 32587 ft | 461 kts | 0° |
| 2026-05-04 23:26 | 46.27731 | 134.91715 | 32590 ft | 462 kts | 360° |
| 2026-05-04 23:27 | 46.34101 | 134.92596 | 32586 ft | 460 kts | 359° |
| 2026-05-04 23:27 | 46.40521 | 134.93401 | 32588 ft | 461 kts | 359° |
| 2026-05-04 23:28 | 46.46886 | 134.94153 | 32587 ft | 462 kts | 359° |
| 2026-05-04 23:28 | 46.53310 | 134.94969 | 32588 ft | 462 kts | 359° |
| 2026-05-04 23:29 | 46.59679 | 134.95830 | 32587 ft | 463 kts | 360° |
| 2026-05-04 23:29 | 46.66084 | 134.96687 | 32586 ft | 463 kts | 359° |
| 2026-05-04 23:30 | 46.72492 | 134.97537 | 32588 ft | 462 kts | 360° |
| 2026-05-04 23:30 | 46.78913 | 134.98456 | 32587 ft | 463 kts | 0° |
| 2026-05-04 23:31 | 46.85319 | 134.99416 | 32588 ft | 464 kts | 360° |
| 2026-05-04 23:31 | 46.91715 | 135.00282 | 32587 ft | 463 kts | 359° |
| 2026-05-04 23:32 | 46.98181 | 135.01062 | 32588 ft | 465 kts | 359° |
| 2026-05-04 23:32 | 47.04585 | 135.01811 | 32587 ft | 465 kts | 360° |
| 2026-05-04 23:33 | 47.11088 | 135.02605 | 32587 ft | 465 kts | 360° |
| 2026-05-04 23:33 | 47.17497 | 135.03397 | 32587 ft | 465 kts | 0° |
| 2026-05-04 23:34 | 47.23974 | 135.04202 | 32587 ft | 465 kts | 0° |
| 2026-05-04 23:34 | 47.30400 | 135.05008 | 32588 ft | 465 kts | 0° |
| 2026-05-04 23:35 | 47.36870 | 135.05823 | 32587 ft | 465 kts | 0° |
| 2026-05-04 23:35 | 47.43293 | 135.06633 | 32587 ft | 465 kts | 0° |
| 2026-05-04 23:36 | 47.49771 | 135.07454 | 32587 ft | 465 kts | 0° |
| 2026-05-04 23:36 | 47.56215 | 135.08272 | 32588 ft | 466 kts | 0° |
| 2026-05-04 23:37 | 47.62649 | 135.09091 | 32588 ft | 466 kts | 0° |
| 2026-05-04 23:37 | 47.69103 | 135.09917 | 32587 ft | 466 kts | 0° |
| 2026-05-04 23:38 | 47.75532 | 135.10739 | 32587 ft | 466 kts | 0° |
| 2026-05-04 23:38 | 47.82025 | 135.11572 | 32588 ft | 466 kts | 0° |
| 2026-05-04 23:39 | 47.88471 | 135.12410 | 32588 ft | 466 kts | 0° |
| 2026-05-04 23:39 | 47.94893 | 135.13246 | 32587 ft | 466 kts | 0° |
| 2026-05-04 23:40 | 48.01358 | 135.14084 | 32587 ft | 466 kts | 0° |
| 2026-05-04 23:40 | 48.07834 | 135.14923 | 32587 ft | 466 kts | 0° |
| 2026-05-04 23:41 | 48.14283 | 135.15761 | 32588 ft | 466 kts | 0° |
| 2026-05-04 23:41 | 48.17487 | 135.16177 | 32758 ft | 466 kts | 0° |
| 2026-05-04 23:41 | 48.20706 | 135.16597 | 32964 ft | 465 kts | 0° |
| 2026-05-04 23:42 | 48.23909 | 135.17015 | 33088 ft | 466 kts | 0° |
| 2026-05-04 23:42 | 48.27172 | 135.17441 | 33249 ft | 466 kts | 0° |
| 2026-05-04 23:42 | 48.30364 | 135.17859 | 33438 ft | 465 kts | 0° |
| 2026-05-04 23:42 | 48.33613 | 135.18285 | 33579 ft | 465 kts | 0° |
| 2026-05-04 23:43 | 48.40077 | 135.19132 | 33586 ft | 467 kts | 0° |
| 2026-05-04 23:43 | 48.46545 | 135.19955 | 33586 ft | 463 kts | 358° |
| 2026-05-04 23:44 | 48.52814 | 135.19090 | 33588 ft | 451 kts | 339° |
| 2026-05-04 23:44 | 48.58379 | 135.15257 | 33589 ft | 441 kts | 322° |
| 2026-05-04 23:45 | 48.63026 | 135.09390 | 33586 ft | 435 kts | 313° |
| 2026-05-04 23:45 | 48.67515 | 135.03233 | 33587 ft | 433 kts | 314° |
| 2026-05-04 23:46 | 48.71984 | 134.97165 | 33588 ft | 431 kts | 314° |
| 2026-05-04 23:46 | 48.76428 | 134.91074 | 33588 ft | 428 kts | 313° |
| 2026-05-04 23:47 | 48.80835 | 134.85019 | 33587 ft | 427 kts | 313° |
| 2026-05-04 23:47 | 48.85226 | 134.78964 | 33587 ft | 427 kts | 313° |
| 2026-05-04 23:48 | 48.89619 | 134.72890 | 33588 ft | 428 kts | 313° |
| 2026-05-04 23:48 | 48.94034 | 134.66769 | 33587 ft | 428 kts | 313° |
| 2026-05-04 23:49 | 48.98403 | 134.60692 | 33587 ft | 427 kts | 313° |
| 2026-05-04 23:49 | 49.02776 | 134.54591 | 33587 ft | 428 kts | 313° |
| 2026-05-04 23:50 | 49.07074 | 134.48291 | 33587 ft | 427 kts | 308° |
| 2026-05-04 23:50 | 49.10589 | 134.41164 | 33588 ft | 422 kts | 300° |
| 2026-05-04 23:51 | 49.13871 | 134.33691 | 33588 ft | 423 kts | 300° |
| 2026-05-04 23:51 | 49.17151 | 134.26271 | 33588 ft | 421 kts | 299° |
| 2026-05-04 23:52 | 49.20373 | 134.18808 | 33587 ft | 422 kts | 299° |
| 2026-05-04 23:52 | 49.23596 | 134.11278 | 33587 ft | 422 kts | 299° |
| 2026-05-04 23:53 | 49.26795 | 134.03789 | 33588 ft | 422 kts | 299° |
| 2026-05-04 23:53 | 49.30019 | 133.96256 | 33589 ft | 423 kts | 299° |
| 2026-05-04 23:54 | 49.33211 | 133.88747 | 33587 ft | 422 kts | 299° |
| 2026-05-04 23:54 | 49.36415 | 133.81169 | 33587 ft | 422 kts | 299° |
| 2026-05-04 23:55 | 49.39584 | 133.73666 | 33587 ft | 421 kts | 299° |
| 2026-05-04 23:56 | 49.44356 | 133.62331 | 33588 ft | 422 kts | 299° |
| 2026-05-04 23:56 | 49.47561 | 133.54729 | 33588 ft | 422 kts | 299° |
| 2026-05-04 23:57 | 49.50738 | 133.47206 | 33587 ft | 421 kts | 299° |
| 2026-05-04 23:57 | 49.53910 | 133.39627 | 33588 ft | 422 kts | 299° |
| 2026-05-04 23:58 | 49.57069 | 133.32010 | 33587 ft | 422 kts | 298° |
| 2026-05-04 23:58 | 49.60247 | 133.24358 | 33588 ft | 422 kts | 298° |
| 2026-05-04 23:59 | 49.63405 | 133.16751 | 33588 ft | 422 kts | 298° |
| 2026-05-04 23:59 | 49.66561 | 133.09111 | 33588 ft | 421 kts | 298° |
| 2026-05-05 00:00 | 49.69680 | 133.01543 | 33587 ft | 420 kts | 298° |
| 2026-05-05 00:00 | 49.72818 | 132.93910 | 33587 ft | 420 kts | 298° |
| 2026-05-05 00:01 | 49.75945 | 132.86281 | 33588 ft | 420 kts | 298° |
| 2026-05-05 00:01 | 49.79051 | 132.78682 | 33587 ft | 420 kts | 298° |
| 2026-05-05 00:02 | 49.82185 | 132.70993 | 33587 ft | 420 kts | 298° |
| 2026-05-05 00:02 | 49.85297 | 132.63336 | 33587 ft | 420 kts | 298° |
| 2026-05-05 00:03 | 49.88397 | 132.55687 | 33587 ft | 420 kts | 298° |
| 2026-05-05 00:03 | 49.91494 | 132.48022 | 33587 ft | 420 kts | 298° |
| 2026-05-05 00:04 | 49.94583 | 132.40355 | 33645 ft | 418 kts | 298° |
| 2026-05-05 00:04 | 49.96103 | 132.36581 | 34125 ft | 409 kts | 298° |
| 2026-05-05 00:04 | 49.97615 | 132.32812 | 34154 ft | 413 kts | 297° |
| 2026-05-05 00:05 | 50.00677 | 132.25157 | 34166 ft | 420 kts | 297° |
| 2026-05-05 00:05 | 50.04075 | 132.17778 | 34164 ft | 425 kts | 307° |
| 2026-05-05 00:06 | 50.08147 | 132.11060 | 34164 ft | 425 kts | 308° |
| 2026-05-05 00:06 | 50.12185 | 132.04379 | 34164 ft | 425 kts | 308° |
| 2026-05-05 00:07 | 50.16259 | 131.97713 | 34164 ft | 425 kts | 309° |
| 2026-05-05 00:07 | 50.20336 | 131.91058 | 34164 ft | 426 kts | 309° |
| 2026-05-05 00:08 | 50.24436 | 131.84363 | 34164 ft | 426 kts | 309° |
| 2026-05-05 00:08 | 50.28535 | 131.77663 | 34164 ft | 426 kts | 309° |
| 2026-05-05 00:09 | 50.32589 | 131.71021 | 34164 ft | 426 kts | 309° |
| 2026-05-05 00:09 | 50.36692 | 131.64285 | 34164 ft | 426 kts | 309° |
| 2026-05-05 00:10 | 50.40765 | 131.57581 | 34164 ft | 426 kts | 309° |
| 2026-05-05 00:10 | 50.44838 | 131.50862 | 34164 ft | 426 kts | 309° |
| 2026-05-05 00:11 | 50.48908 | 131.44128 | 34164 ft | 426 kts | 309° |
| 2026-05-05 00:11 | 50.52958 | 131.37410 | 34164 ft | 426 kts | 309° |
| 2026-05-05 00:12 | 50.57048 | 131.30609 | 34164 ft | 426 kts | 308° |
| 2026-05-05 00:12 | 50.61097 | 131.23857 | 34164 ft | 425 kts | 308° |
| 2026-05-05 00:13 | 50.65140 | 131.17097 | 34164 ft | 426 kts | 308° |
| 2026-05-05 00:13 | 50.69197 | 131.10295 | 34164 ft | 426 kts | 308° |
| 2026-05-05 00:14 | 50.73251 | 131.03482 | 34164 ft | 426 kts | 308° |
| 2026-05-05 00:14 | 50.77295 | 130.96666 | 34164 ft | 425 kts | 308° |
| 2026-05-05 00:15 | 50.81318 | 130.89868 | 34164 ft | 424 kts | 307° |
| 2026-05-05 00:15 | 50.85350 | 130.83031 | 34164 ft | 424 kts | 307° |
| 2026-05-05 00:16 | 50.89358 | 130.76211 | 34164 ft | 423 kts | 307° |
| 2026-05-05 00:16 | 50.93348 | 130.69406 | 34164 ft | 423 kts | 306° |
| 2026-05-05 00:17 | 50.97324 | 130.62605 | 34164 ft | 422 kts | 306° |
| 2026-05-05 00:17 | 51.01313 | 130.55762 | 34164 ft | 421 kts | 305° |
| 2026-05-05 00:18 | 51.05283 | 130.48935 | 34164 ft | 421 kts | 305° |
| 2026-05-05 00:18 | 51.09245 | 130.42101 | 34164 ft | 421 kts | 305° |
| 2026-05-05 00:19 | 51.13202 | 130.35260 | 34164 ft | 421 kts | 305° |
| 2026-05-05 00:19 | 51.17157 | 130.28401 | 34032 ft | 425 kts | 304° |
| 2026-05-05 00:19 | 51.19168 | 130.24898 | 33513 ft | 427 kts | 304° |
| 2026-05-05 00:20 | 51.21149 | 130.21468 | 33461 ft | 416 kts | 304° |
| 2026-05-05 00:20 | 51.25064 | 130.14639 | 33454 ft | 419 kts | 304° |
| 2026-05-05 00:21 | 51.29023 | 130.07710 | 33452 ft | 424 kts | 304° |
| 2026-05-05 00:21 | 51.32986 | 130.00768 | 33451 ft | 424 kts | 304° |
| 2026-05-05 00:22 | 51.36892 | 129.93765 | 33452 ft | 422 kts | 303° |
| 2026-05-05 00:22 | 51.40769 | 129.86700 | 33452 ft | 422 kts | 303° |
| 2026-05-05 00:23 | 51.44647 | 129.79646 | 33453 ft | 422 kts | 303° |
| 2026-05-05 00:23 | 51.48514 | 129.72586 | 33452 ft | 422 kts | 303° |
| 2026-05-05 00:24 | 51.52403 | 129.65474 | 33452 ft | 422 kts | 303° |
| 2026-05-05 00:24 | 51.56261 | 129.58394 | 33452 ft | 422 kts | 303° |
| 2026-05-05 00:25 | 51.60120 | 129.51296 | 33452 ft | 422 kts | 303° |
| 2026-05-05 00:25 | 51.63966 | 129.44199 | 33452 ft | 422 kts | 303° |
| 2026-05-05 00:26 | 51.67823 | 129.37065 | 33452 ft | 422 kts | 303° |
| 2026-05-05 00:26 | 51.71674 | 129.29919 | 33452 ft | 422 kts | 303° |
| 2026-05-05 00:27 | 51.75529 | 129.22749 | 33452 ft | 421 kts | 303° |
| 2026-05-05 00:27 | 51.79350 | 129.15620 | 33452 ft | 421 kts | 303° |
| 2026-05-05 00:28 | 51.83186 | 129.08443 | 33452 ft | 422 kts | 302° |
| 2026-05-05 00:28 | 51.87023 | 129.01244 | 33453 ft | 423 kts | 302° |
| 2026-05-05 00:29 | 51.90861 | 128.94020 | 33453 ft | 425 kts | 302° |
| 2026-05-05 00:29 | 51.94714 | 128.86749 | 33452 ft | 427 kts | 301° |
| 2026-05-05 00:30 | 51.98590 | 128.79416 | 33452 ft | 427 kts | 301° |
| 2026-05-05 00:30 | 52.02449 | 128.72095 | 33452 ft | 427 kts | 301° |
| 2026-05-05 00:31 | 52.06298 | 128.64766 | 33452 ft | 426 kts | 301° |
| 2026-05-05 00:31 | 52.10137 | 128.57439 | 33452 ft | 427 kts | 301° |
| 2026-05-05 00:32 | 52.13977 | 128.50087 | 33453 ft | 426 kts | 301° |
| 2026-05-05 00:32 | 52.17814 | 128.42722 | 33452 ft | 427 kts | 301° |
| 2026-05-05 00:33 | 52.21634 | 128.35365 | 33453 ft | 427 kts | 301° |
| 2026-05-05 00:33 | 52.25464 | 128.27969 | 33452 ft | 426 kts | 301° |
| 2026-05-05 00:34 | 52.29285 | 128.20569 | 33452 ft | 425 kts | 300° |
| 2026-05-05 00:34 | 52.33084 | 128.13188 | 33452 ft | 426 kts | 301° |
| 2026-05-05 00:35 | 52.36892 | 128.05768 | 33453 ft | 426 kts | 301° |
| 2026-05-05 00:35 | 52.40707 | 127.98315 | 33452 ft | 426 kts | 301° |
| 2026-05-05 00:36 | 52.44485 | 127.90911 | 33452 ft | 426 kts | 301° |
| 2026-05-05 00:36 | 52.48290 | 127.83432 | 33452 ft | 426 kts | 301° |
| 2026-05-05 00:37 | 52.52058 | 127.76004 | 33452 ft | 426 kts | 301° |
| 2026-05-05 00:37 | 52.55855 | 127.68497 | 33452 ft | 426 kts | 301° |
| 2026-05-05 00:38 | 52.59613 | 127.61043 | 33452 ft | 426 kts | 301° |
| 2026-05-05 00:38 | 52.63397 | 127.53518 | 33452 ft | 426 kts | 301° |
| 2026-05-05 00:39 | 52.67157 | 127.46018 | 33452 ft | 426 kts | 301° |
| 2026-05-05 00:39 | 52.70915 | 127.38464 | 33452 ft | 425 kts | 300° |
| 2026-05-05 00:40 | 52.74643 | 127.30895 | 33452 ft | 425 kts | 300° |
| 2026-05-05 00:40 | 52.78368 | 127.23326 | 33452 ft | 424 kts | 300° |
| 2026-05-05 00:41 | 52.82079 | 127.15758 | 33452 ft | 425 kts | 300° |
| 2026-05-05 00:41 | 52.85804 | 127.08137 | 33453 ft | 429 kts | 300° |
| 2026-05-05 00:42 | 52.89581 | 127.00397 | 33452 ft | 434 kts | 300° |
| 2026-05-05 00:42 | 52.93387 | 126.92575 | 33453 ft | 437 kts | 300° |
| 2026-05-05 00:43 | 52.97179 | 126.84762 | 33451 ft | 437 kts | 300° |
| 2026-05-05 00:43 | 53.01000 | 126.76856 | 33453 ft | 440 kts | 301° |
| 2026-05-05 00:44 | 53.04853 | 126.68858 | 33453 ft | 445 kts | 302° |
| 2026-05-05 00:44 | 53.08720 | 126.60811 | 33452 ft | 449 kts | 302° |
| 2026-05-05 00:45 | 53.12622 | 126.52666 | 33452 ft | 452 kts | 303° |
| 2026-05-05 00:45 | 53.16557 | 126.44428 | 33452 ft | 452 kts | 303° |
| 2026-05-05 00:46 | 53.20444 | 126.36261 | 33452 ft | 451 kts | 303° |
| 2026-05-05 00:46 | 53.24328 | 126.28075 | 33452 ft | 450 kts | 302° |
| 2026-05-05 00:47 | 53.28224 | 126.19833 | 33452 ft | 450 kts | 302° |
| 2026-05-05 00:47 | 53.32095 | 126.11616 | 33452 ft | 451 kts | 302° |
| 2026-05-05 00:48 | 53.35947 | 126.03415 | 33452 ft | 451 kts | 302° |
| 2026-05-05 00:48 | 53.39831 | 125.95118 | 33452 ft | 451 kts | 302° |
| 2026-05-05 00:49 | 53.43693 | 125.86842 | 33452 ft | 451 kts | 302° |
| 2026-05-05 00:49 | 53.46947 | 125.78025 | 33452 ft | 440 kts | 288° |
| 2026-05-05 00:50 | 53.48641 | 125.68373 | 33453 ft | 432 kts | 278° |
| 2026-05-05 00:50 | 53.50097 | 125.58514 | 33451 ft | 433 kts | 279° |
| 2026-05-05 00:51 | 53.51566 | 125.48734 | 33452 ft | 433 kts | 279° |
| 2026-05-05 00:51 | 53.53003 | 125.38904 | 33452 ft | 433 kts | 279° |
| 2026-05-05 00:52 | 53.54426 | 125.29099 | 33452 ft | 432 kts | 278° |
| 2026-05-05 00:52 | 53.55841 | 125.19257 | 33452 ft | 432 kts | 278° |
| 2026-05-05 00:53 | 53.57240 | 125.09447 | 33452 ft | 432 kts | 278° |
| 2026-05-05 00:53 | 53.58629 | 124.99628 | 33452 ft | 433 kts | 278° |
| 2026-05-05 00:54 | 53.60032 | 124.89641 | 33453 ft | 440 kts | 279° |
| 2026-05-05 00:54 | 53.61440 | 124.79549 | 33452 ft | 447 kts | 279° |
| 2026-05-05 00:55 | 53.62851 | 124.69389 | 33452 ft | 448 kts | 279° |
| 2026-05-05 00:55 | 53.64258 | 124.59179 | 33452 ft | 446 kts | 279° |
| 2026-05-05 00:56 | 53.65654 | 124.48974 | 33452 ft | 446 kts | 279° |
| 2026-05-05 00:56 | 53.67040 | 124.38769 | 33452 ft | 446 kts | 279° |
| 2026-05-05 00:57 | 53.68418 | 124.28554 | 33452 ft | 446 kts | 279° |
| 2026-05-05 00:57 | 53.69780 | 124.18394 | 33452 ft | 445 kts | 279° |
| 2026-05-05 00:58 | 53.71144 | 124.08134 | 33452 ft | 445 kts | 279° |
| 2026-05-05 00:58 | 53.72493 | 123.97929 | 33452 ft | 446 kts | 279° |
| 2026-05-05 00:59 | 53.73833 | 123.87709 | 33452 ft | 446 kts | 279° |
| 2026-05-05 00:59 | 53.75157 | 123.77543 | 33452 ft | 445 kts | 279° |
| 2026-05-05 01:00 | 53.76483 | 123.67286 | 33452 ft | 445 kts | 279° |
| 2026-05-05 01:00 | 53.77800 | 123.57031 | 33452 ft | 445 kts | 279° |
| 2026-05-05 01:01 | 53.78798 | 123.46730 | 33450 ft | 442 kts | 271° |
| 2026-05-05 01:01 | 53.78770 | 123.36427 | 33453 ft | 439 kts | 266° |
| 2026-05-05 01:02 | 53.78667 | 123.26104 | 33453 ft | 439 kts | 266° |
| 2026-05-05 01:02 | 53.78539 | 123.15759 | 33452 ft | 439 kts | 265° |
| 2026-05-05 01:03 | 53.78377 | 123.05469 | 33452 ft | 440 kts | 265° |
| 2026-05-05 01:03 | 53.78196 | 122.95033 | 33453 ft | 444 kts | 266° |
| 2026-05-05 01:04 | 53.78000 | 122.84614 | 33453 ft | 447 kts | 266° |
| 2026-05-05 01:04 | 53.77682 | 122.68835 | 33452 ft | 446 kts | 266° |
| 2026-05-05 01:05 | 53.77458 | 122.58389 | 33452 ft | 446 kts | 266° |
| 2026-05-05 01:05 | 53.77224 | 122.47924 | 33452 ft | 446 kts | 266° |
| 2026-05-05 01:06 | 53.77103 | 122.42697 | 33628 ft | 441 kts | 266° |
| 2026-05-05 01:06 | 53.76982 | 122.37515 | 33878 ft | 440 kts | 266° |
| 2026-05-05 01:06 | 53.76727 | 122.27062 | 33886 ft | 447 kts | 265° |
| 2026-05-05 01:07 | 53.76466 | 122.16601 | 33885 ft | 447 kts | 265° |
| 2026-05-05 01:07 | 53.76211 | 122.06104 | 33884 ft | 445 kts | 265° |
| 2026-05-05 01:08 | 53.75997 | 121.96617 | 33885 ft | 445 kts | 265° |
| 2026-05-05 01:08 | 53.75747 | 121.86200 | 33885 ft | 445 kts | 265° |
| 2026-05-05 01:09 | 53.75485 | 121.75706 | 33885 ft | 446 kts | 265° |
| 2026-05-05 01:09 | 53.75215 | 121.65237 | 33884 ft | 446 kts | 265° |
| 2026-05-05 01:10 | 53.74936 | 121.54766 | 33885 ft | 446 kts | 265° |
| 2026-05-05 01:10 | 53.74648 | 121.44357 | 33885 ft | 446 kts | 265° |
| 2026-05-05 01:11 | 53.74350 | 121.33884 | 33885 ft | 446 kts | 265° |
| 2026-05-05 01:11 | 53.74043 | 121.23401 | 33885 ft | 446 kts | 265° |
| 2026-05-05 01:12 | 53.73729 | 121.13011 | 33885 ft | 446 kts | 265° |
| 2026-05-05 01:12 | 53.73402 | 121.02510 | 33885 ft | 447 kts | 266° |
| 2026-05-05 01:13 | 53.73068 | 120.92053 | 33886 ft | 449 kts | 266° |
| 2026-05-05 01:13 | 53.72722 | 120.81504 | 33885 ft | 450 kts | 266° |
| 2026-05-05 01:14 | 53.72368 | 120.71014 | 33884 ft | 449 kts | 266° |
| 2026-05-05 01:14 | 53.72004 | 120.60506 | 33885 ft | 449 kts | 266° |
| 2026-05-05 01:15 | 53.71629 | 120.49954 | 33885 ft | 449 kts | 266° |
| 2026-05-05 01:15 | 53.71247 | 120.39459 | 33884 ft | 449 kts | 266° |
| 2026-05-05 01:16 | 53.70857 | 120.28979 | 33885 ft | 449 kts | 265° |
| 2026-05-05 01:16 | 53.70457 | 120.18482 | 33885 ft | 449 kts | 265° |
| 2026-05-05 01:17 | 53.70047 | 120.07977 | 33885 ft | 449 kts | 265° |
| 2026-05-05 01:17 | 53.69628 | 119.97474 | 33885 ft | 449 kts | 265° |
| 2026-05-05 01:18 | 53.69200 | 119.86988 | 33885 ft | 449 kts | 265° |
| 2026-05-05 01:18 | 53.68765 | 119.76537 | 33885 ft | 449 kts | 265° |
| 2026-05-05 01:19 | 53.68303 | 119.66039 | 33885 ft | 448 kts | 265° |
| 2026-05-05 01:19 | 53.67765 | 119.55610 | 33885 ft | 449 kts | 264° |
| 2026-05-05 01:20 | 53.67226 | 119.45116 | 33884 ft | 449 kts | 264° |
| 2026-05-05 01:20 | 53.66680 | 119.34642 | 33884 ft | 449 kts | 264° |
| 2026-05-05 01:21 | 53.66123 | 119.24139 | 33885 ft | 449 kts | 264° |
| 2026-05-05 01:21 | 53.65560 | 119.13685 | 33829 ft | 450 kts | 264° |
| 2026-05-05 01:22 | 53.64989 | 119.03241 | 33831 ft | 448 kts | 264° |
| 2026-05-05 01:22 | 53.64409 | 118.92821 | 33831 ft | 447 kts | 264° |
| 2026-05-05 01:23 | 53.63820 | 118.82398 | 33831 ft | 447 kts | 265° |
| 2026-05-05 01:23 | 53.63226 | 118.72032 | 33831 ft | 447 kts | 265° |
| 2026-05-05 01:24 | 53.62618 | 118.61581 | 33831 ft | 447 kts | 265° |
| 2026-05-05 01:24 | 53.62004 | 118.51210 | 33830 ft | 447 kts | 265° |
| 2026-05-05 01:25 | 53.61382 | 118.40844 | 33831 ft | 447 kts | 265° |
| 2026-05-05 01:25 | 53.60745 | 118.30386 | 33830 ft | 447 kts | 264° |
| 2026-05-05 01:26 | 53.60107 | 118.20042 | 33831 ft | 447 kts | 264° |
| 2026-05-05 01:26 | 53.59456 | 118.09657 | 33831 ft | 447 kts | 264° |
| 2026-05-05 01:27 | 53.58798 | 117.99297 | 33831 ft | 447 kts | 264° |
| 2026-05-05 01:27 | 53.58126 | 117.88877 | 33831 ft | 447 kts | 264° |
| 2026-05-05 01:28 | 53.57451 | 117.78539 | 33831 ft | 447 kts | 264° |
| 2026-05-05 01:28 | 53.56761 | 117.68117 | 33831 ft | 447 kts | 264° |
| 2026-05-05 01:29 | 53.56064 | 117.57729 | 33830 ft | 447 kts | 264° |
| 2026-05-05 01:29 | 53.55359 | 117.47364 | 33831 ft | 447 kts | 264° |
| 2026-05-05 01:30 | 53.54648 | 117.37040 | 33831 ft | 447 kts | 264° |
| 2026-05-05 01:30 | 53.53921 | 117.26609 | 33831 ft | 447 kts | 263° |
| 2026-05-05 01:31 | 53.53191 | 117.16283 | 33830 ft | 447 kts | 263° |
| 2026-05-05 01:31 | 53.52449 | 117.05911 | 33830 ft | 447 kts | 263° |
| 2026-05-05 01:32 | 53.51698 | 116.95540 | 33831 ft | 447 kts | 264° |
| 2026-05-05 01:32 | 53.50939 | 116.85188 | 33831 ft | 449 kts | 264° |
| 2026-05-05 01:33 | 53.50179 | 116.74794 | 33831 ft | 449 kts | 264° |
| 2026-05-05 01:33 | 53.49440 | 116.64408 | 33831 ft | 449 kts | 264° |
| 2026-05-05 01:34 | 53.48687 | 116.54051 | 33831 ft | 449 kts | 264° |
| 2026-05-05 01:34 | 53.47920 | 116.43620 | 33831 ft | 449 kts | 264° |
| 2026-05-05 01:35 | 53.47151 | 116.33292 | 33831 ft | 449 kts | 264° |
| 2026-05-05 01:35 | 53.46367 | 116.22894 | 33831 ft | 449 kts | 264° |
| 2026-05-05 01:36 | 53.45578 | 116.12544 | 33831 ft | 449 kts | 264° |
| 2026-05-05 01:36 | 53.44775 | 116.02152 | 33831 ft | 449 kts | 264° |
| 2026-05-05 01:37 | 53.43964 | 115.91760 | 33831 ft | 449 kts | 263° |
| 2026-05-05 01:37 | 53.43146 | 115.81403 | 33831 ft | 449 kts | 263° |
| 2026-05-05 01:38 | 53.42319 | 115.71051 | 33831 ft | 449 kts | 263° |
| 2026-05-05 01:38 | 53.41482 | 115.60696 | 33831 ft | 449 kts | 263° |
| 2026-05-05 01:39 | 53.40641 | 115.50402 | 33831 ft | 449 kts | 263° |
| 2026-05-05 01:39 | 53.39787 | 115.40060 | 33831 ft | 449 kts | 263° |
| 2026-05-05 01:40 | 53.38924 | 115.29725 | 33831 ft | 449 kts | 263° |
| 2026-05-05 01:40 | 53.38051 | 115.19373 | 33831 ft | 449 kts | 263° |
| 2026-05-05 01:41 | 53.37165 | 115.08984 | 33831 ft | 450 kts | 263° |
| 2026-05-05 01:41 | 53.36279 | 114.98697 | 33831 ft | 451 kts | 263° |
| 2026-05-05 01:42 | 53.35370 | 114.88259 | 33831 ft | 451 kts | 263° |
| 2026-05-05 01:42 | 53.34462 | 114.77937 | 33831 ft | 451 kts | 263° |
| 2026-05-05 01:43 | 53.33538 | 114.67554 | 33831 ft | 451 kts | 263° |
| 2026-05-05 01:43 | 53.32607 | 114.57182 | 33831 ft | 451 kts | 263° |
| 2026-05-05 01:44 | 53.31673 | 114.46880 | 33831 ft | 451 kts | 263° |
| 2026-05-05 01:44 | 53.30725 | 114.36537 | 33831 ft | 451 kts | 263° |
| 2026-05-05 01:45 | 53.29767 | 114.26180 | 33831 ft | 451 kts | 262° |
| 2026-05-05 01:45 | 53.28797 | 114.15801 | 33831 ft | 451 kts | 262° |
| 2026-05-05 01:46 | 53.27828 | 114.05526 | 33831 ft | 451 kts | 262° |
| 2026-05-05 01:46 | 53.26841 | 113.95162 | 33830 ft | 451 kts | 262° |
| 2026-05-05 01:47 | 53.25843 | 113.84790 | 33831 ft | 451 kts | 262° |
| 2026-05-05 01:47 | 53.24842 | 113.74469 | 33831 ft | 451 kts | 262° |
| 2026-05-05 01:48 | 53.23836 | 113.64205 | 33831 ft | 451 kts | 262° |
| 2026-05-05 01:48 | 53.22816 | 113.53886 | 33831 ft | 451 kts | 262° |
| 2026-05-05 01:49 | 53.21782 | 113.43526 | 33831 ft | 451 kts | 262° |
| 2026-05-05 01:49 | 53.20748 | 113.33265 | 33831 ft | 451 kts | 261° |
| 2026-05-05 01:50 | 53.19702 | 113.22972 | 33831 ft | 452 kts | 261° |
| 2026-05-05 01:50 | 53.18646 | 113.12671 | 33831 ft | 451 kts | 261° |
| 2026-05-05 01:51 | 53.17580 | 113.02361 | 33831 ft | 451 kts | 261° |
| 2026-05-05 01:51 | 53.16506 | 112.92072 | 33831 ft | 452 kts | 262° |
| 2026-05-05 01:52 | 53.15416 | 112.81720 | 33831 ft | 453 kts | 262° |
| 2026-05-05 01:52 | 53.14321 | 112.71407 | 33831 ft | 454 kts | 262° |
| 2026-05-05 01:53 | 53.13216 | 112.61089 | 33831 ft | 454 kts | 262° |
| 2026-05-05 01:53 | 53.12098 | 112.50743 | 33831 ft | 453 kts | 262° |
| 2026-05-05 01:54 | 53.10978 | 112.40466 | 33831 ft | 453 kts | 262° |
| 2026-05-05 01:54 | 53.09847 | 112.30172 | 33831 ft | 452 kts | 261° |
| 2026-05-05 01:55 | 53.08709 | 112.19904 | 33831 ft | 451 kts | 261° |
| 2026-05-05 01:55 | 53.07574 | 112.09747 | 33831 ft | 449 kts | 261° |
| 2026-05-05 01:56 | 53.06428 | 111.99576 | 33830 ft | 448 kts | 261° |
| 2026-05-05 01:56 | 53.05276 | 111.89426 | 33831 ft | 447 kts | 261° |
| 2026-05-05 01:57 | 53.04114 | 111.79277 | 33831 ft | 446 kts | 261° |
| 2026-05-05 01:57 | 53.02952 | 111.69203 | 33831 ft | 445 kts | 261° |
| 2026-05-05 01:58 | 53.01783 | 111.59148 | 33831 ft | 443 kts | 261° |
| 2026-05-05 01:58 | 53.00614 | 111.49177 | 33831 ft | 442 kts | 261° |
| 2026-05-05 01:59 | 52.99432 | 111.39159 | 33831 ft | 441 kts | 261° |
| 2026-05-05 01:59 | 52.98253 | 111.29256 | 33831 ft | 440 kts | 260° |
| 2026-05-05 02:00 | 52.97061 | 111.19313 | 33830 ft | 439 kts | 260° |
| 2026-05-05 02:00 | 52.95867 | 111.09434 | 33831 ft | 437 kts | 260° |
| 2026-05-05 02:01 | 52.94669 | 110.99590 | 33831 ft | 435 kts | 260° |
| 2026-05-05 02:01 | 52.93464 | 110.89770 | 33831 ft | 433 kts | 260° |
| 2026-05-05 02:02 | 52.92256 | 110.80028 | 33831 ft | 432 kts | 260° |
| 2026-05-05 02:02 | 52.91047 | 110.70335 | 33831 ft | 433 kts | 260° |
| 2026-05-05 02:03 | 52.89820 | 110.60564 | 33831 ft | 433 kts | 261° |
| 2026-05-05 02:03 | 52.88583 | 110.50791 | 33830 ft | 433 kts | 261° |
| 2026-05-05 02:04 | 52.87345 | 110.41080 | 33830 ft | 433 kts | 261° |
| 2026-05-05 02:04 | 52.86098 | 110.31358 | 33885 ft | 432 kts | 259° |
| 2026-05-05 02:05 | 52.84844 | 110.21652 | 33961 ft | 433 kts | 259° |
| 2026-05-05 02:05 | 52.83581 | 110.11944 | 34020 ft | 433 kts | 259° |
| 2026-05-05 02:06 | 52.82312 | 110.02254 | 34020 ft | 433 kts | 259° |
| 2026-05-05 02:06 | 52.81032 | 109.92551 | 34020 ft | 432 kts | 259° |
| 2026-05-05 02:07 | 52.79742 | 109.82816 | 34020 ft | 432 kts | 260° |
| 2026-05-05 02:07 | 52.78451 | 109.73126 | 34020 ft | 433 kts | 260° |
| 2026-05-05 02:08 | 52.77148 | 109.63420 | 34020 ft | 432 kts | 259° |
| 2026-05-05 02:08 | 52.75843 | 109.53765 | 34020 ft | 432 kts | 259° |
| 2026-05-05 02:09 | 52.74527 | 109.44085 | 34020 ft | 432 kts | 259° |
| 2026-05-05 02:09 | 52.73199 | 109.34392 | 34020 ft | 432 kts | 259° |
| 2026-05-05 02:10 | 52.71866 | 109.24718 | 34020 ft | 433 kts | 259° |
| 2026-05-05 02:10 | 52.70530 | 109.15080 | 34020 ft | 434 kts | 259° |
| 2026-05-05 02:11 | 52.69177 | 109.05386 | 34020 ft | 437 kts | 259° |
| 2026-05-05 02:11 | 52.67801 | 108.95596 | 34020 ft | 441 kts | 259° |
| 2026-05-05 02:12 | 52.65709 | 108.80831 | 34019 ft | 441 kts | 259° |
| 2026-05-05 02:13 | 52.64302 | 108.70984 | 34020 ft | 441 kts | 259° |
| 2026-05-05 02:13 | 52.62903 | 108.61245 | 34020 ft | 440 kts | 259° |
| 2026-05-05 02:14 | 52.61485 | 108.51441 | 34020 ft | 441 kts | 259° |
| 2026-05-05 02:14 | 52.60059 | 108.41648 | 34020 ft | 441 kts | 259° |
| 2026-05-05 02:15 | 52.58620 | 108.31824 | 34020 ft | 441 kts | 258° |
| 2026-05-05 02:15 | 52.57174 | 108.22015 | 34020 ft | 441 kts | 258° |
| 2026-05-05 02:16 | 52.55722 | 108.12229 | 34020 ft | 441 kts | 258° |
| 2026-05-05 02:16 | 52.54266 | 108.02473 | 34020 ft | 441 kts | 258° |
| 2026-05-05 02:17 | 52.52801 | 107.92719 | 34020 ft | 441 kts | 258° |
| 2026-05-05 02:17 | 52.51324 | 107.82947 | 34020 ft | 441 kts | 258° |
| 2026-05-05 02:18 | 52.49839 | 107.73180 | 34020 ft | 441 kts | 258° |
| 2026-05-05 02:18 | 52.48348 | 107.63434 | 34020 ft | 441 kts | 258° |
| 2026-05-05 02:19 | 52.46856 | 107.53733 | 34020 ft | 441 kts | 258° |
| 2026-05-05 02:19 | 52.45345 | 107.43977 | 34020 ft | 441 kts | 258° |
| 2026-05-05 02:20 | 52.43830 | 107.34248 | 34020 ft | 441 kts | 257° |
| 2026-05-05 02:20 | 52.42304 | 107.24511 | 34020 ft | 442 kts | 257° |
| 2026-05-05 02:21 | 52.40769 | 107.14772 | 34020 ft | 442 kts | 257° |
| 2026-05-05 02:21 | 52.39225 | 107.05033 | 34020 ft | 441 kts | 257° |
| 2026-05-05 02:22 | 52.37682 | 106.95360 | 34020 ft | 442 kts | 257° |
| 2026-05-05 02:22 | 52.36115 | 106.85589 | 34020 ft | 444 kts | 258° |
| 2026-05-05 02:23 | 52.34531 | 106.75768 | 34019 ft | 446 kts | 257° |
| 2026-05-05 02:23 | 52.32959 | 106.66062 | 34020 ft | 445 kts | 258° |
| 2026-05-05 02:24 | 52.31370 | 106.56252 | 33816 ft | 447 kts | 258° |
| 2026-05-05 02:24 | 52.30576 | 106.51398 | 33025 ft | 448 kts | 257° |
| 2026-05-05 02:24 | 52.29673 | 106.46514 | 32145 ft | 450 kts | 253° |
| 2026-05-05 02:24 | 52.28532 | 106.41788 | 31220 ft | 453 kts | 250° |
| 2026-05-05 02:25 | 52.27308 | 106.37026 | 30242 ft | 454 kts | 250° |
| 2026-05-05 02:25 | 52.26125 | 106.32269 | 29238 ft | 456 kts | 250° |
| 2026-05-05 02:25 | 52.24962 | 106.27518 | 28202 ft | 458 kts | 250° |
| 2026-05-05 02:25 | 52.23780 | 106.22715 | 27109 ft | 460 kts | 250° |
| 2026-05-05 02:26 | 52.22583 | 106.17877 | 25959 ft | 463 kts | 250° |
| 2026-05-05 02:26 | 52.21380 | 106.13028 | 24764 ft | 465 kts | 250° |
| 2026-05-05 02:26 | 52.20172 | 106.08160 | 23710 ft | 462 kts | 250° |
| 2026-05-05 02:26 | 52.18977 | 106.03359 | 22951 ft | 454 kts | 250° |
| 2026-05-05 02:27 | 52.17810 | 105.98686 | 22152 ft | 447 kts | 250° |
| 2026-05-05 02:27 | 52.16648 | 105.94034 | 21344 ft | 440 kts | 250° |
| 2026-05-05 02:27 | 52.15510 | 105.89490 | 20478 ft | 436 kts | 250° |
| 2026-05-05 02:27 | 52.14373 | 105.84964 | 19677 ft | 429 kts | 250° |
| 2026-05-05 02:28 | 52.13245 | 105.80485 | 18876 ft | 423 kts | 250° |
| 2026-05-05 02:28 | 52.12138 | 105.76097 | 18098 ft | 417 kts | 250° |
| 2026-05-05 02:28 | 52.11047 | 105.71780 | 17305 ft | 412 kts | 250° |
| 2026-05-05 02:28 | 52.09975 | 105.67545 | 16518 ft | 407 kts | 251° |
| 2026-05-05 02:29 | 52.08904 | 105.63322 | 15746 ft | 401 kts | 251° |
| 2026-05-05 02:29 | 52.07854 | 105.59187 | 14999 ft | 396 kts | 251° |
| 2026-05-05 02:29 | 52.06805 | 105.55068 | 14243 ft | 391 kts | 251° |
| 2026-05-05 02:29 | 52.05786 | 105.51073 | 13515 ft | 386 kts | 251° |
| 2026-05-05 02:30 | 52.04772 | 105.47089 | 12788 ft | 381 kts | 252° |
| 2026-05-05 02:30 | 52.04079 | 105.42985 | 12075 ft | 370 kts | 266° |
| 2026-05-05 02:30 | 52.04052 | 105.38918 | 11584 ft | 356 kts | 280° |
| 2026-05-05 02:30 | 52.04593 | 105.35135 | 11266 ft | 339 kts | 289° |
| 2026-05-05 02:31 | 52.05278 | 105.31541 | 11098 ft | 322 kts | 288° |
| 2026-05-05 02:31 | 52.05896 | 105.28149 | 10934 ft | 307 kts | 288° |
| 2026-05-05 02:31 | 52.06488 | 105.24895 | 10773 ft | 293 kts | 288° |
| 2026-05-05 02:31 | 52.07060 | 105.21776 | 10618 ft | 281 kts | 288° |
| 2026-05-05 02:32 | 52.07600 | 105.18820 | 10470 ft | 269 kts | 288° |
| 2026-05-05 02:32 | 52.08122 | 105.15963 | 10313 ft | 259 kts | 289° |
| 2026-05-05 02:32 | 52.08630 | 105.13186 | 10039 ft | 254 kts | 289° |
| 2026-05-05 02:32 | 52.09125 | 105.10469 | 9703 ft | 251 kts | 289° |
| 2026-05-05 02:33 | 52.09620 | 105.07751 | 9375 ft | 249 kts | 289° |
| 2026-05-05 02:33 | 52.10113 | 105.05041 | 9049 ft | 246 kts | 289° |
| 2026-05-05 02:33 | 52.10597 | 105.02373 | 8728 ft | 243 kts | 289° |
| 2026-05-05 02:33 | 52.11069 | 104.99768 | 8496 ft | 237 kts | 289° |
| 2026-05-05 02:34 | 52.11521 | 104.97264 | 8412 ft | 227 kts | 289° |
| 2026-05-05 02:34 | 52.11971 | 104.94784 | 8333 ft | 225 kts | 289° |
| 2026-05-05 02:34 | 52.12434 | 104.92435 | 8168 ft | 214 kts | 295° |
| 2026-05-05 02:34 | 52.13029 | 104.90271 | 7865 ft | 209 kts | 296° |
| 2026-05-05 02:35 | 52.13611 | 104.88107 | 7563 ft | 203 kts | 296° |
| 2026-05-05 02:35 | 52.14166 | 104.86052 | 7316 ft | 194 kts | 296° |
| 2026-05-05 02:35 | 52.14693 | 104.84121 | 7104 ft | 180 kts | 296° |
| 2026-05-05 02:35 | 52.15179 | 104.82333 | 6899 ft | 167 kts | 296° |
| 2026-05-05 02:36 | 52.15645 | 104.80619 | 6723 ft | 163 kts | 296° |
| 2026-05-05 02:36 | 52.16104 | 104.78929 | 6540 ft | 165 kts | 296° |
| 2026-05-05 02:36 | 52.16571 | 104.77210 | 6349 ft | 165 kts | 296° |
| 2026-05-05 02:36 | 52.17034 | 104.75498 | 6161 ft | 164 kts | 296° |
| 2026-05-05 02:37 | 52.17492 | 104.73810 | 5976 ft | 164 kts | 296° |
| 2026-05-05 02:37 | 52.17949 | 104.72120 | 5791 ft | 164 kts | 296° |
| 2026-05-05 02:37 | 52.18411 | 104.70412 | 5603 ft | 163 kts | 296° |
| 2026-05-05 02:37 | 52.18866 | 104.68729 | 5487 ft | 162 kts | 296° |
| 2026-05-05 02:38 | 52.19318 | 104.67054 | 5349 ft | 162 kts | 296° |
| 2026-05-05 02:38 | 52.19773 | 104.65366 | 5187 ft | 163 kts | 296° |
| 2026-05-05 02:38 | 52.20225 | 104.63687 | 4934 ft | 158 kts | 296° |
| 2026-05-05 02:38 | 52.20663 | 104.62060 | 4709 ft | 156 kts | 296° |
| 2026-05-05 02:39 | 52.21092 | 104.60468 | 4479 ft | 151 kts | 296° |
| 2026-05-05 02:39 | 52.21507 | 104.58921 | 4254 ft | 148 kts | 296° |
| 2026-05-05 02:39 | 52.21910 | 104.57420 | 4041 ft | 143 kts | 296° |
| 2026-05-05 02:39 | 52.22306 | 104.55945 | 3818 ft | 140 kts | 296° |
| 2026-05-05 02:40 | 52.22694 | 104.54498 | 3613 ft | 140 kts | 296° |
| 2026-05-05 02:40 | 52.23077 | 104.53070 | 3430 ft | 135 kts | 296° |
| 2026-05-05 02:40 | 52.23450 | 104.51676 | 3201 ft | 134 kts | 296° |
| 2026-05-05 02:40 | 52.23822 | 104.50290 | 3006 ft | 133 kts | 296° |
| 2026-05-05 02:41 | 52.24195 | 104.48893 | 2804 ft | 133 kts | 296° |
| 2026-05-05 02:41 | 52.24565 | 104.47513 | 2609 ft | 132 kts | 296° |
| 2026-05-05 02:41 | 52.24932 | 104.46139 | 2417 ft | 132 kts | 296° |
| 2026-05-05 02:41 | 52.25296 | 104.44775 | 2205 ft | 131 kts | 296° |
| 2026-05-05 02:42 | 52.25665 | 104.43409 | 1976 ft | 129 kts | 296° |
| 2026-05-05 02:42 | 52.26018 | 104.42080 | 1777 ft | 127 kts | 295° |
| 2026-05-05 02:42 | 52.26355 | 104.40801 | 1681 ft | 108 kts | 295° |
| 2026-05-05 02:42 | 52.26569 | 104.40018 | 1680 ft | 45 kts | 294° |
| 2026-05-05 02:43 | 52.26680 | 104.39606 | 1680 ft | 34 kts | 294° |
| 2026-05-05 02:43 | 52.26766 | 104.39279 | 1680 ft | 28 kts | 295° |
| 2026-05-05 02:43 | 52.26838 | 104.39005 | 1680 ft | 25 kts | 293° |
| 2026-05-05 02:43 | 52.26909 | 104.38741 | 1680 ft | 24 kts | 294° |
| 2026-05-05 02:44 | 52.26975 | 104.38491 | 1680 ft | 24 kts | 293° |
| 2026-05-05 02:44 | 52.27039 | 104.38250 | 1680 ft | 21 kts | 292° |
| 2026-05-05 02:44 | 52.27100 | 104.38023 | 1680 ft | 21 kts | 295° |
| 2026-05-05 02:44 | 52.27158 | 104.37804 | 1680 ft | 19 kts | 294° |
| 2026-05-05 02:45 | 52.27184 | 104.37648 | 1680 ft | 14 kts | 255° |
| 2026-05-05 02:45 | 52.27129 | 104.37508 | 1680 ft | 15 kts | 236° |
| 2026-05-05 02:45 | 52.27065 | 104.37363 | 1680 ft | 15 kts | 234° |
| 2026-05-05 02:45 | 52.27003 | 104.37219 | 1680 ft | 14 kts | 237° |
| 2026-05-05 02:46 | 52.27005 | 104.37068 | 1680 ft | 14 kts | 290° |
| 2026-05-05 02:46 | 52.27040 | 104.36912 | 1680 ft | 8 kts | 289° |
| 2026-05-05 02:46 | 52.27059 | 104.36874 | 1680 ft | 3 kts | 350° |
| 2026-05-05 02:46 | 52.27079 | 104.36877 | 1680 ft | 1 kts | 12° |
| 2026-05-05 02:47 | 52.27090 | 104.36881 | 1680 ft | 1 kts | 15° |
| 2026-05-05 02:47 | 52.27091 | 104.36881 | 1680 ft | 0 kts | 15° |